ANDO2: Washita River, OK

Data processed at Fri Jan 05 2018 23:36


All information presented herein is the property of the government of the United States of America and may be revised or deleted at any time without prior notice.
Dissemination of this information without the expressed written consent of the Public Affairs Office, Tulsa District U.S. Army Corps of Engineers is strictly prohibited.
These data are gathered electronically and, as presented, have not undergone any form of quality control. These data are not guaranteed to be valid or correct.
Go to home page.
Go to station list.

Upstream stations:

Downstream station:
Previous Day
Next Day
Current Day
    
SHEF ID:       ANDO2     Washita River at Anadarko, OK
STATION TYPE:  

               PRECIP PRECIP(A)     STAGE  RIV-FLOW  BAT-LOAD
                   in        in        ft       cfs      volt
              Ccp-Rev   Ccp-Rev   Ccp-Rev   Ccp-Rev   Ccp-Rev
(US/Central)
01/03 00:00      0.00      0.00      7.69       447     12.57
01/03 01:00      0.00      0.00      7.70       452     12.57
01/03 02:00      0.00      0.00      7.70       452     12.49
01/03 03:00      0.00      0.00      7.71       457     12.49
01/03 04:00      0.00      0.00      7.71       457     12.41
01/03 05:00      0.00      0.00      7.69       447     12.41
01/03 06:00      ----      ----      7.69       447     12.41
01/03 07:00      0.00      0.00      7.68       442     12.33
01/03 08:00      0.00      0.00      7.68       442     12.25
01/03 09:00      0.00      0.00      7.68       442     13.21
01/03 10:00      0.00      0.00      7.67       437     13.44
01/03 11:00      0.00      0.00      7.68       442     13.68
01/03 12:00      0.00      0.00      7.60       401     14.00
01/03 13:00      0.00      0.00      7.50       351     14.08
01/03 14:00      0.00      0.00      7.48       341     13.68
01/03 15:00      ----      ----      7.46       331      ----
01/03 16:00      ----      ----      7.44       320     13.29
01/03 17:00      0.00      0.00      7.43       315     13.29
01/03 18:00      0.00      0.00      7.43       315     13.05
01/03 19:00      0.00      0.00      7.43       315     12.81
01/03 20:00      0.00      0.00      7.43       315     12.73
01/03 21:00      0.00      0.00      7.41       306     12.73
01/03 22:00      0.00      0.00      7.39       295     12.65
01/03 23:00      0.00      0.00      7.37       285     12.65